createdAt,value
2017-05-17T00:00:45.474Z,83.12
2017-05-17T00:01:55.583Z,83.12
2017-05-17T00:03:05.816Z,83.22
2017-05-17T00:04:16.018Z,82.26
2017-05-17T00:05:26.726Z,82.93
2017-05-17T00:06:36.942Z,83.31
2017-05-17T00:07:48.682Z,83.22
2017-05-17T00:08:59.782Z,82.74
2017-05-17T00:10:10.660Z,82.64
2017-05-17T00:11:21.404Z,83.41
2017-05-17T00:12:31.817Z,82.26
2017-05-17T00:13:40.783Z,81.78
2017-05-17T00:14:49.750Z,81.78
2017-05-17T00:15:59.349Z,82.84
2017-05-17T00:17:08.312Z,82.74
2017-05-17T00:18:17.270Z,82.26
2017-05-17T00:19:26.233Z,81.97
2017-05-17T00:20:35.198Z,81.97
2017-05-17T00:21:44.513Z,82.07
2017-05-17T00:22:53.477Z,82.07
2017-05-17T00:24:02.536Z,82.45
2017-05-17T00:25:11.498Z,82.84
2017-05-17T00:26:20.462Z,83.03
2017-05-17T00:27:30.328Z,83.22
2017-05-17T00:28:39.297Z,82.45
2017-05-17T00:29:48.264Z,82.93
2017-05-17T00:30:57.229Z,82.35
2017-05-17T00:32:06.189Z,83.03
2017-05-17T00:33:15.501Z,82.93
2017-05-17T00:34:24.468Z,82.26
2017-05-17T00:35:33.437Z,82.35
2017-05-17T00:36:42.400Z,82.26
2017-05-17T00:37:51.365Z,82.93
2017-05-17T00:39:00.633Z,81.87
2017-05-17T00:40:09.597Z,82.07
2017-05-17T00:41:18.557Z,82.16
2017-05-17T00:42:27.521Z,82.26
2017-05-17T00:43:36.490Z,82.07
2017-05-17T00:44:45.749Z,82.35
2017-05-17T00:45:54.715Z,81.97
2017-05-17T00:47:03.674Z,82.16
2017-05-17T00:48:12.640Z,81.68
2017-05-17T00:49:21.687Z,81.78
2017-05-17T00:50:31.058Z,82.16
2017-05-17T00:51:40.102Z,81.87
2017-05-17T00:52:49.065Z,81.68
2017-05-17T00:53:58.031Z,81.59
2017-05-17T00:55:06.998Z,81.78
2017-05-17T00:56:16.208Z,81.59
2017-05-17T00:57:25.260Z,81.1
2017-05-17T00:58:34.308Z,81.3
2017-05-17T00:59:43.268Z,81.87
2017-05-17T01:00:52.320Z,82.16
2017-05-17T01:02:01.532Z,82.07
2017-05-17T01:03:10.492Z,81.68
2017-05-17T01:04:19.782Z,81.59
2017-05-17T01:05:28.746Z,81.59
2017-05-17T01:06:37.710Z,81.68
2017-05-17T01:07:47.061Z,81.78
2017-05-17T01:08:56.027Z,81.78
2017-05-17T01:10:05.004Z,81.4
2017-05-17T01:11:13.968Z,81.49
2017-05-17T01:12:22.931Z,81.4
2017-05-17T01:13:32.194Z,82.07
2017-05-17T01:14:41.156Z,81.1
2017-05-17T01:15:50.123Z,81.2
2017-05-17T01:16:59.406Z,80.63
2017-05-17T01:18:08.367Z,80.73
2017-05-17T01:19:17.623Z,78.52
2017-05-17T01:20:26.588Z,79.96
2017-05-17T01:21:35.548Z,79.96
2017-05-17T01:22:44.507Z,79.96
2017-05-17T01:23:53.472Z,78.99
2017-05-17T01:25:02.735Z,79.76
2017-05-17T01:26:11.785Z,79.57
2017-05-17T01:27:20.752Z,80.53
2017-05-17T01:28:29.803Z,80.91
2017-05-17T01:29:38.767Z,81.01
2017-05-17T01:30:48.026Z,80.53
2017-05-17T01:31:57.074Z,80.05
2017-05-17T01:33:06.036Z,79.76
2017-05-17T01:34:15.087Z,79.57
2017-05-17T01:35:24.376Z,79.76
2017-05-17T01:36:33.641Z,79.96
2017-05-17T01:37:42.608Z,79.96
2017-05-17T01:38:51.574Z,79.28
2017-05-17T01:40:00.538Z,79.96
2017-05-17T01:41:09.498Z,79.86
2017-05-17T01:42:18.761Z,79.96
2017-05-17T01:43:27.722Z,78.32
2017-05-17T01:44:37.014Z,77.65
2017-05-17T01:45:45.979Z,79.28
2017-05-17T01:46:54.940Z,78.7
2017-05-17T01:48:04.295Z,78.9
2017-05-17T01:49:13.262Z,78.52
2017-05-17T01:50:22.219Z,78.61
2017-05-17T01:51:31.182Z,78.61
2017-05-17T01:52:40.237Z,78.42
2017-05-17T01:53:49.515Z,78.61
2017-05-17T01:54:58.480Z,79.38
2017-05-17T01:56:07.440Z,78.7
2017-05-17T01:57:16.398Z,78.9
2017-05-17T01:58:25.372Z,79.38
2017-05-17T01:59:34.585Z,79.47
2017-05-17T02:00:43.550Z,79.19
2017-05-17T02:01:52.512Z,79.09
2017-05-17T02:03:01.493Z,79.47
2017-05-17T02:04:10.463Z,78.99
2017-05-17T02:05:19.729Z,78.32
2017-05-17T02:06:28.687Z,78.9
2017-05-17T02:07:37.649Z,78.8
2017-05-17T02:08:46.616Z,78.7
2017-05-17T02:09:55.579Z,78.7
2017-05-17T02:11:04.849Z,78.42
2017-05-17T02:12:13.818Z,78.52
2017-05-17T02:13:22.869Z,78.7
2017-05-17T02:14:31.829Z,78.61
2017-05-17T02:15:40.880Z,77.75
2017-05-17T02:16:50.146Z,77.94
2017-05-17T02:17:59.113Z,77.46
2017-05-17T02:19:08.075Z,76.79
2017-05-17T02:20:17.041Z,77.36
2017-05-17T02:21:25.999Z,76.98
2017-05-17T02:22:35.678Z,76.88
2017-05-17T02:23:44.638Z,76.88
2017-05-17T02:24:53.733Z,77.08
2017-05-17T02:26:02.702Z,76.59
2017-05-17T02:27:11.665Z,75.92
2017-05-17T02:28:21.014Z,75.73
2017-05-17T02:29:29.980Z,75.25
2017-05-17T02:30:39.032Z,75.82
2017-05-17T02:31:47.990Z,76.59
2017-05-17T02:32:57.299Z,75.25
2017-05-17T02:34:06.558Z,75.25
2017-05-17T02:35:15.520Z,75.45
2017-05-17T02:36:24.614Z,74.87
2017-05-17T02:37:33.586Z,75.73
2017-05-17T02:38:42.634Z,75.35
2017-05-17T02:39:51.902Z,74.58
2017-05-17T02:41:01.531Z,74.58
2017-05-17T02:42:10.498Z,75.15
2017-05-17T02:43:19.460Z,75.35
2017-05-17T02:44:28.424Z,74.87
2017-05-17T02:45:37.688Z,74.48
2017-05-17T02:46:46.653Z,74.19
2017-05-17T02:47:55.704Z,74.19
2017-05-17T02:49:04.665Z,74.1
2017-05-17T02:50:13.715Z,73.1
2017-05-17T02:51:23.112Z,73.04
2017-05-17T02:52:32.167Z,73.14
2017-05-17T02:53:41.134Z,73.04
2017-05-17T02:54:50.104Z,73.04
2017-05-17T02:55:59.072Z,72.56
2017-05-17T02:57:08.334Z,72.53
2017-05-17T02:58:17.297Z,72.08
2017-05-17T02:59:26.259Z,71.61
2017-05-17T03:00:35.219Z,71.37
2017-05-17T03:01:44.186Z,71.22
2017-05-17T03:02:53.398Z,70.74
2017-05-17T03:04:02.359Z,70.74
2017-05-17T03:05:11.367Z,69.49
2017-05-17T03:06:20.657Z,69.93
2017-05-17T03:07:29.617Z,69.36
2017-05-17T03:08:38.877Z,69.56
2017-05-17T03:09:47.953Z,69.36
2017-05-17T03:10:56.922Z,68.69
2017-05-17T03:12:05.890Z,67.16
2017-05-17T03:13:14.856Z,67.54
2017-05-17T03:14:24.122Z,66.96
2017-05-17T03:15:33.086Z,66.9
2017-05-17T03:16:42.140Z,66.39
2017-05-17T03:17:51.105Z,66.96
2017-05-17T03:19:00.070Z,66.29
2017-05-17T03:20:09.030Z,65.33
2017-05-17T03:21:17.994Z,64.66
2017-05-17T03:22:26.963Z,65.43
2017-05-17T03:23:35.929Z,64.28
2017-05-17T03:24:44.893Z,64.66
2017-05-17T03:25:53.856Z,64.85
2017-05-17T03:27:02.815Z,64.18
2017-05-17T03:28:11.773Z,63.6
2017-05-17T03:29:20.825Z,63.6
2017-05-17T03:30:29.859Z,63.7
2017-05-17T03:31:38.870Z,63.12
2017-05-17T03:32:47.922Z,63.03
2017-05-17T03:33:56.889Z,62.55
2017-05-17T03:35:05.860Z,62.07
2017-05-17T03:36:14.824Z,62.16
2017-05-17T03:37:23.836Z,61.98
2017-05-17T03:38:32.806Z,61.98
2017-05-17T03:39:41.768Z,62.74
2017-05-17T03:40:50.739Z,62.55
2017-05-17T03:41:59.699Z,62.93
2017-05-17T03:43:08.657Z,62.74
2017-05-17T03:44:17.941Z,62.74
2017-05-17T03:45:26.986Z,62.55
2017-05-17T03:46:35.946Z,62.16
2017-05-17T03:47:44.912Z,61.98
2017-05-17T03:48:53.921Z,61.78
2017-05-17T03:50:02.968Z,61.69
2017-05-17T03:51:11.930Z,62.65
2017-05-17T03:52:20.893Z,62.55
2017-05-17T03:53:29.859Z,62.74
2017-05-17T03:54:38.875Z,62.65
2017-05-17T03:55:47.923Z,62.07
2017-05-17T03:56:56.885Z,62.36
2017-05-17T03:58:05.849Z,62.07
2017-05-17T03:59:14.812Z,62.45
2017-05-17T04:00:24.178Z,61.21
2017-05-17T04:01:33.136Z,60.92
2017-05-17T04:02:42.103Z,60.92
2017-05-17T04:03:51.200Z,60.92
2017-05-17T04:05:00.168Z,60.92
2017-05-17T04:06:09.135Z,61.4
2017-05-17T04:07:18.424Z,61.3
2017-05-17T04:08:27.481Z,60.82
2017-05-17T04:09:36.446Z,60.82
2017-05-17T04:10:45.459Z,60.72
2017-05-17T04:11:54.419Z,60.92
2017-05-17T04:13:03.381Z,60.92
2017-05-17T04:14:12.350Z,60.63
2017-05-17T04:15:21.315Z,60.25
2017-05-17T04:16:30.334Z,60.25
2017-05-17T04:17:39.351Z,59.96
2017-05-17T04:18:48.311Z,60.44
2017-05-17T04:19:57.362Z,60.08
2017-05-17T04:21:06.325Z,59.96
2017-05-17T04:22:15.291Z,60.25
2017-05-17T04:23:24.508Z,60.18
2017-05-17T04:24:33.468Z,59.61
2017-05-17T04:25:42.426Z,59.67
2017-05-17T04:26:51.475Z,59.51
2017-05-17T04:28:00.437Z,59.7
2017-05-17T04:29:09.706Z,59.51
2017-05-17T04:30:18.996Z,59.51
2017-05-17T04:31:28.047Z,59.41
2017-05-17T04:32:37.095Z,59.41
2017-05-17T04:33:46.063Z,59.41
2017-05-17T04:34:55.333Z,58.64
2017-05-17T04:36:04.388Z,58.07
2017-05-17T04:37:13.353Z,58.26
2017-05-17T04:38:22.402Z,58.74
2017-05-17T04:39:31.366Z,58.36
2017-05-17T04:40:40.660Z,58.55
2017-05-17T04:41:49.621Z,58.74
2017-05-17T04:42:58.585Z,58.55
2017-05-17T04:44:07.548Z,58.55
2017-05-17T04:45:16.513Z,58.84
2017-05-17T04:46:25.783Z,58.74
2017-05-17T04:47:34.749Z,58.64
2017-05-17T04:48:43.771Z,58.64
2017-05-17T04:49:52.734Z,58.74
2017-05-17T04:51:01.780Z,58.26
2017-05-17T04:52:10.995Z,57.68
2017-05-17T04:53:19.959Z,57.78
2017-05-17T04:54:28.932Z,57.88
2017-05-17T04:55:37.901Z,57.88
2017-05-17T04:56:46.912Z,57.78
2017-05-17T04:57:56.176Z,58.26
2017-05-17T04:59:05.138Z,58.64
2017-05-17T05:00:14.434Z,58.94
2017-05-17T05:01:23.392Z,58.84
2017-05-17T05:02:32.377Z,58.48
2017-05-17T05:03:41.592Z,58.58
2017-05-17T05:04:50.551Z,58.45
2017-05-17T05:05:59.511Z,58.58
2017-05-17T05:07:08.473Z,58.67
2017-05-17T05:08:17.494Z,58.2
2017-05-17T05:09:26.760Z,58.58
2017-05-17T05:10:35.721Z,58.77
2017-05-17T05:11:44.682Z,58.58
2017-05-17T05:12:53.643Z,58.29
2017-05-17T05:14:02.607Z,58.77
2017-05-17T05:15:11.871Z,58.29
2017-05-17T05:16:20.842Z,58.87
2017-05-17T05:17:29.802Z,58.87
2017-05-17T05:18:38.814Z,58.45
2017-05-17T05:19:47.774Z,58.2
2017-05-17T05:20:57.316Z,58.2
2017-05-17T05:22:06.632Z,58.77
2017-05-17T05:23:15.597Z,58.48
2017-05-17T05:24:24.560Z,58.87
2017-05-17T05:25:33.539Z,58.48
2017-05-17T05:26:42.799Z,58.39
2017-05-17T05:27:51.853Z,58.74
2017-05-17T05:29:00.821Z,58.87
2017-05-17T05:30:09.779Z,58.74
2017-05-17T05:31:18.739Z,59.03
2017-05-17T05:32:28.011Z,58.87
2017-05-17T05:33:37.076Z,58.26
2017-05-17T05:34:46.135Z,58.26
2017-05-17T05:35:55.099Z,58.29
2017-05-17T05:37:04.121Z,58
2017-05-17T05:38:13.441Z,57.9
2017-05-17T05:39:22.401Z,57.9
2017-05-17T05:40:31.361Z,58
2017-05-17T05:41:40.327Z,57.71
2017-05-17T05:42:49.373Z,57.33
2017-05-17T05:43:58.640Z,57.43
2017-05-17T05:45:07.614Z,57.62
2017-05-17T05:46:16.578Z,57.43
2017-05-17T05:47:25.541Z,57.23
2017-05-17T05:48:34.589Z,57.43
2017-05-17T05:49:43.938Z,57.52
2017-05-17T05:50:52.902Z,57.52
2017-05-17T05:52:01.861Z,57.04
2017-05-17T05:53:10.913Z,56.95
2017-05-17T05:54:19.877Z,57.33
2017-05-17T05:55:29.094Z,56.88
2017-05-17T05:56:38.057Z,56.98
2017-05-17T05:57:47.021Z,57.14
2017-05-17T05:58:55.996Z,57.07
2017-05-17T06:00:04.958Z,57.07
2017-05-17T06:01:14.255Z,56.78
2017-05-17T06:02:23.219Z,56.68
2017-05-17T06:03:32.185Z,56.59
2017-05-17T06:04:41.154Z,56.4
2017-05-17T06:05:50.209Z,56.68
2017-05-17T06:06:59.431Z,56.21
2017-05-17T06:08:08.391Z,56.01
2017-05-17T06:09:17.353Z,55.91
2017-05-17T06:10:26.460Z,55.53
2017-05-17T06:11:35.420Z,55.91
2017-05-17T06:12:44.630Z,55.53
2017-05-17T06:13:53.590Z,55.34
2017-05-17T06:15:02.643Z,54.69
2017-05-17T06:16:11.600Z,55.05
2017-05-17T06:17:20.563Z,54.5
2017-05-17T06:18:29.780Z,54.6
2017-05-17T06:19:38.911Z,54.22
2017-05-17T06:20:47.878Z,53.92
2017-05-17T06:21:56.845Z,53.83
2017-05-17T06:23:05.815Z,53.92
2017-05-17T06:24:15.486Z,54.31
2017-05-17T06:25:24.774Z,53.54
2017-05-17T06:26:33.859Z,53.74
2017-05-17T06:27:42.864Z,53.35
2017-05-17T06:28:51.946Z,53.16
2017-05-17T06:30:01.303Z,52.89
2017-05-17T06:31:10.406Z,52.7
2017-05-17T06:32:19.701Z,52.42
2017-05-17T06:33:28.721Z,52.42
2017-05-17T06:34:37.706Z,52.32
2017-05-17T06:35:47.060Z,52.32
2017-05-17T06:36:56.025Z,52.61
2017-05-17T06:38:05.616Z,52.61
2017-05-17T06:39:14.609Z,51.84
2017-05-17T06:40:23.576Z,51.84
2017-05-17T06:41:32.992Z,51.55
2017-05-17T06:42:41.968Z,51.64
2017-05-17T06:43:50.935Z,51.74
2017-05-17T06:45:00.460Z,51.26
2017-05-17T06:46:09.816Z,50.9
2017-05-17T06:47:21.590Z,51.17
2017-05-17T06:48:33.420Z,50.97
2017-05-17T06:49:44.588Z,51.19
2017-05-17T06:50:53.884Z,51.38
2017-05-17T06:52:03.448Z,51.09
2017-05-17T06:53:13.529Z,50.9
2017-05-17T06:54:23.521Z,50.99
2017-05-17T06:55:32.885Z,51.09
2017-05-17T06:56:42.311Z,50.61
2017-05-17T06:57:51.990Z,50.9
2017-05-17T06:59:01.646Z,50.99
2017-05-17T07:00:11.262Z,50.61
2017-05-17T07:01:21.123Z,50.32
2017-05-17T07:02:30.803Z,50.04
2017-05-17T07:03:40.219Z,49.94
2017-05-17T07:04:50.161Z,49.84
2017-05-17T07:05:59.729Z,49.84
2017-05-17T07:07:09.305Z,50.23
2017-05-17T07:08:19.075Z,50.04
2017-05-17T07:09:28.712Z,49.84
2017-05-17T07:10:38.472Z,50.13
2017-05-17T07:11:48.133Z,50.42
2017-05-17T07:12:57.608Z,49.58
2017-05-17T07:14:06.917Z,49.29
2017-05-17T07:15:16.568Z,48.81
2017-05-17T07:16:26.921Z,48.71
2017-05-17T07:17:39.512Z,48.81
2017-05-17T07:18:48.759Z,49.19
2017-05-17T07:19:58.246Z,49.1
2017-05-17T07:21:08.061Z,48.71
2017-05-17T07:22:17.794Z,48.81
2017-05-17T07:23:27.378Z,48.33
2017-05-17T07:24:37.014Z,48.33
2017-05-17T07:25:46.424Z,48.43
2017-05-17T07:26:55.840Z,48.61
2017-05-17T07:28:05.835Z,48.64
2017-05-17T07:29:15.176Z,48.9
2017-05-17T07:30:24.529Z,48.71
2017-05-17T07:31:34.024Z,48.43
2017-05-17T07:32:43.722Z,48.33
2017-05-17T07:33:53.696Z,48.23
2017-05-17T07:35:03.152Z,48.23
2017-05-17T07:36:12.506Z,47.58
2017-05-17T07:37:21.991Z,48.25
2017-05-17T07:38:31.435Z,47.77
2017-05-17T07:39:41.211Z,48.06
2017-05-17T07:40:51.000Z,47.97
2017-05-17T07:42:00.179Z,47.97
2017-05-17T07:43:09.162Z,47.39
2017-05-17T07:44:18.241Z,48.16
2017-05-17T07:45:27.551Z,47.39
2017-05-17T07:46:36.518Z,47.77
2017-05-17T07:47:45.493Z,47.58
2017-05-17T07:48:54.464Z,47.87
2017-05-17T07:50:03.433Z,47.8
2017-05-17T07:51:12.695Z,48.08
2017-05-17T07:52:21.745Z,47.89
2017-05-17T07:53:30.709Z,47.7
2017-05-17T07:54:39.670Z,47.8
2017-05-17T07:55:48.638Z,47.51
2017-05-17T07:56:57.919Z,47.7
2017-05-17T07:58:06.893Z,47.7
2017-05-17T07:59:15.855Z,47.22
2017-05-17T08:00:24.824Z,47.22
2017-05-17T08:01:33.789Z,47.8
2017-05-17T08:02:43.054Z,47.89
2017-05-17T08:03:52.026Z,47.31
2017-05-17T08:05:01.002Z,47.12
2017-05-17T08:06:10.138Z,47.03
2017-05-17T08:07:19.162Z,46.73
2017-05-17T08:08:28.437Z,46.55
2017-05-17T08:09:37.404Z,46.95
2017-05-17T08:10:46.448Z,46.93
2017-05-17T08:11:55.406Z,46.86
2017-05-17T08:13:04.373Z,46.56
2017-05-17T08:14:13.586Z,46.37
2017-05-17T08:15:22.563Z,46.86
2017-05-17T08:16:31.531Z,46.95
2017-05-17T08:17:40.496Z,46.95
2017-05-17T08:18:49.549Z,46.95
2017-05-17T08:19:58.814Z,46.69
2017-05-17T08:21:07.777Z,46.18
2017-05-17T08:22:16.746Z,45.82
2017-05-17T08:23:25.709Z,46.08
2017-05-17T08:24:34.678Z,45.82
2017-05-17T08:25:43.945Z,46.11
2017-05-17T08:26:52.909Z,45.92
2017-05-17T08:28:01.879Z,46.11
2017-05-17T08:29:10.849Z,46.11
2017-05-17T08:30:19.813Z,46.01
2017-05-17T08:31:29.030Z,46.49
2017-05-17T08:32:37.994Z,46.49
2017-05-17T08:33:46.963Z,45.84
2017-05-17T08:34:56.081Z,45.94
2017-05-17T08:36:05.045Z,45.07
2017-05-17T08:37:14.313Z,45.45
2017-05-17T08:38:23.286Z,45.17
2017-05-17T08:39:32.252Z,45.07
2017-05-17T08:40:41.311Z,45.36
2017-05-17T08:41:50.272Z,44.78
2017-05-17T08:42:59.538Z,44.97
2017-05-17T08:44:08.502Z,45.28
2017-05-17T08:45:17.561Z,45.55
2017-05-17T08:46:26.529Z,46.06
2017-05-17T08:47:35.493Z,45.86
2017-05-17T08:48:44.761Z,45.48
2017-05-17T08:49:53.729Z,45.57
2017-05-17T08:51:02.700Z,45.28
2017-05-17T08:52:11.668Z,45.38
2017-05-17T08:53:20.723Z,45.38
2017-05-17T08:54:29.948Z,45.28
2017-05-17T08:55:38.917Z,45.38
2017-05-17T08:56:47.890Z,45.28
2017-05-17T08:57:56.857Z,45.28
2017-05-17T08:59:05.819Z,45.28
2017-05-17T09:00:15.090Z,44.53
2017-05-17T09:01:24.189Z,45.38
2017-05-17T09:02:33.152Z,45.28
2017-05-17T09:03:42.122Z,45.98
2017-05-17T09:04:51.087Z,45.89
2017-05-17T09:06:00.370Z,45.79
2017-05-17T09:07:09.658Z,44.82
2017-05-17T09:08:18.625Z,44.43
2017-05-17T09:09:27.599Z,44.6
2017-05-17T09:10:36.571Z,44.8
2017-05-17T09:11:45.846Z,45.38
2017-05-17T09:12:54.902Z,45.28
2017-05-17T09:14:03.873Z,45.5
2017-05-17T09:15:13.162Z,45.59
2017-05-17T09:16:22.158Z,45.21
2017-05-17T09:17:31.379Z,45.31
2017-05-17T09:18:40.438Z,45.48
2017-05-17T09:19:49.405Z,45.89
2017-05-17T09:20:59.029Z,46.17
2017-05-17T09:22:07.992Z,46.27
2017-05-17T09:23:17.267Z,46.56
2017-05-17T09:24:26.236Z,46.17
2017-05-17T09:25:35.203Z,45.98
2017-05-17T09:26:44.169Z,46.17
2017-05-17T09:27:53.469Z,46.27
2017-05-17T09:29:02.689Z,45.98
2017-05-17T09:30:11.655Z,45.4
2017-05-17T09:31:20.673Z,44.82
2017-05-17T09:32:29.637Z,45.31
2017-05-17T09:33:38.658Z,45.31
2017-05-17T09:34:47.925Z,45.31
2017-05-17T09:35:56.898Z,45.21
2017-05-17T09:37:05.864Z,45.5
2017-05-17T09:38:14.828Z,45.21
2017-05-17T09:39:24.133Z,45.33
2017-05-17T09:40:33.351Z,45.89
2017-05-17T09:41:42.313Z,45.69
2017-05-17T09:42:51.277Z,45.42
2017-05-17T09:44:00.243Z,45.52
2017-05-17T09:45:09.205Z,45.52
2017-05-17T09:46:18.468Z,43.98
2017-05-17T09:47:27.755Z,43.37
2017-05-17T09:48:36.726Z,43.57
2017-05-17T09:49:45.690Z,43.88
2017-05-17T09:50:54.654Z,43.57
2017-05-17T09:52:03.971Z,43.88
2017-05-17T09:53:12.947Z,44.26
2017-05-17T09:54:21.912Z,44.46
2017-05-17T09:55:30.884Z,44.26
2017-05-17T09:56:39.848Z,44.26
2017-05-17T09:57:49.118Z,44.46
2017-05-17T09:58:58.093Z,44.36
2017-05-17T10:00:07.063Z,44.26
2017-05-17T10:01:16.033Z,44.36
2017-05-17T10:02:25.101Z,44.07
2017-05-17T10:03:34.315Z,44.26
2017-05-17T10:04:43.284Z,43.88
2017-05-17T10:05:52.252Z,44.36
2017-05-17T10:07:01.220Z,44.46
2017-05-17T10:08:10.273Z,44.07
2017-05-17T10:09:19.542Z,44.26
2017-05-17T10:10:28.515Z,44.17
2017-05-17T10:11:37.484Z,43.9
2017-05-17T10:12:46.459Z,43.8
2017-05-17T10:13:55.427Z,43.03
2017-05-17T10:15:04.699Z,43.41
2017-05-17T10:16:13.666Z,43.41
2017-05-17T10:17:22.631Z,42.93
2017-05-17T10:18:31.597Z,42.83
2017-05-17T10:19:40.900Z,43.13
2017-05-17T10:20:50.120Z,43.32
2017-05-17T10:21:59.089Z,43.41
2017-05-17T10:23:08.053Z,43.03
2017-05-17T10:24:17.115Z,43.32
2017-05-17T10:25:26.166Z,43.41
2017-05-17T10:26:35.523Z,43.61
2017-05-17T10:27:44.578Z,43.23
2017-05-17T10:28:53.643Z,43.32
2017-05-17T10:30:02.604Z,43.23
2017-05-17T10:31:11.579Z,42.25
2017-05-17T10:32:21.169Z,42.65
2017-05-17T10:33:30.227Z,42.55
2017-05-17T10:34:39.195Z,42.35
2017-05-17T10:35:48.160Z,42.55
2017-05-17T10:36:57.129Z,42.35
2017-05-17T10:38:06.350Z,42.55
2017-05-17T10:39:15.316Z,42.35
2017-05-17T10:40:24.281Z,42.65
2017-05-17T10:41:33.394Z,42.35
2017-05-17T10:42:42.382Z,42.25
2017-05-17T10:43:51.648Z,42.25
2017-05-17T10:45:00.616Z,42.35
2017-05-17T10:46:09.582Z,42.55
2017-05-17T10:47:18.546Z,42.55
2017-05-17T10:48:27.515Z,41.97
2017-05-17T10:49:36.734Z,42.35
2017-05-17T10:50:45.704Z,42.25
2017-05-17T10:51:54.675Z,42.35
2017-05-17T10:53:03.971Z,42.07
2017-05-17T10:54:12.939Z,41.67
2017-05-17T10:55:22.153Z,42.08
2017-05-17T10:56:31.117Z,41.89
2017-05-17T10:57:40.086Z,41.7
2017-05-17T10:58:49.107Z,41.99
2017-05-17T10:59:58.072Z,41.99
2017-05-17T11:01:07.378Z,42.08
2017-05-17T11:02:16.356Z,42.28
2017-05-17T11:03:25.321Z,41.99
2017-05-17T11:04:34.614Z,41.99
2017-05-17T11:05:43.577Z,41.79
2017-05-17T11:06:52.796Z,41.89
2017-05-17T11:08:01.762Z,41.11
2017-05-17T11:09:10.725Z,40.92
2017-05-17T11:10:19.783Z,40.92
2017-05-17T11:11:28.755Z,40.73
2017-05-17T11:12:37.977Z,40.92
2017-05-17T11:13:46.944Z,41.5
2017-05-17T11:14:55.909Z,41.02
2017-05-17T11:16:04.878Z,40.83
2017-05-17T11:17:13.846Z,40.92
2017-05-17T11:18:23.118Z,41.33
2017-05-17T11:19:32.092Z,41.04
2017-05-17T11:20:41.061Z,41.24
2017-05-17T11:21:50.118Z,41.14
2017-05-17T11:22:59.083Z,40.75
2017-05-17T11:24:08.302Z,40.94
2017-05-17T11:25:17.273Z,40.17
2017-05-17T11:26:26.241Z,40.84
2017-05-17T11:27:35.207Z,40.75
2017-05-17T11:28:44.174Z,40.46
2017-05-17T11:29:53.443Z,40.26
2017-05-17T11:31:02.738Z,40.75
2017-05-17T11:32:11.710Z,39.59
2017-05-17T11:33:20.765Z,39.29
2017-05-17T11:34:29.737Z,39.78
2017-05-17T11:35:38.954Z,39.78
2017-05-17T11:36:47.922Z,39.88
2017-05-17T11:37:56.981Z,39.88
2017-05-17T11:39:05.952Z,40.67
2017-05-17T11:40:15.012Z,41.04
2017-05-17T11:41:24.315Z,41.16
2017-05-17T11:42:33.286Z,40.65
2017-05-17T11:43:42.263Z,40.86
2017-05-17T11:44:51.319Z,40.19
2017-05-17T11:46:00.290Z,40.28
2017-05-17T11:47:09.642Z,39.8
2017-05-17T11:48:18.609Z,39.7
2017-05-17T11:49:27.585Z,39.61
2017-05-17T11:50:36.553Z,39.7
2017-05-17T11:51:45.530Z,39.69
2017-05-17T11:52:54.794Z,40
2017-05-17T11:54:03.764Z,40.09
2017-05-17T11:55:12.731Z,40.86
2017-05-17T11:56:21.696Z,40.19
2017-05-17T11:57:30.672Z,40.58
2017-05-17T11:58:39.949Z,40.28
2017-05-17T11:59:48.916Z,39.8
2017-05-17T12:00:57.886Z,39.22
2017-05-17T12:02:06.856Z,39.7
2017-05-17T12:03:15.995Z,39.8
2017-05-17T12:04:25.269Z,40.28
2017-05-17T12:05:34.234Z,40.58
2017-05-17T12:06:43.209Z,40.96
2017-05-17T12:07:52.180Z,41.06
2017-05-17T12:09:01.151Z,40.48
2017-05-17T12:10:10.419Z,40.38
2017-05-17T12:11:19.473Z,40.58
2017-05-17T12:12:28.437Z,40.77
2017-05-17T12:13:37.405Z,40.48
2017-05-17T12:14:46.701Z,40.96
2017-05-17T12:15:55.935Z,39.8
2017-05-17T12:17:04.994Z,39.61
2017-05-17T12:18:13.965Z,40.38
2017-05-17T12:19:22.933Z,40.19
2017-05-17T12:20:31.901Z,40.48
2017-05-17T12:21:41.117Z,39.61
2017-05-17T12:22:50.093Z,39.8
2017-05-17T12:23:59.386Z,39.51
2017-05-17T12:25:08.353Z,39.51
2017-05-17T12:26:17.325Z,39.49
2017-05-17T12:27:26.641Z,40.19
2017-05-17T12:28:35.610Z,40.48
2017-05-17T12:29:44.581Z,40.38
2017-05-17T12:30:53.630Z,40.77
2017-05-17T12:32:02.602Z,40.28
2017-05-17T12:33:11.878Z,40.19
2017-05-17T12:34:20.850Z,39.03
2017-05-17T12:35:30.154Z,38.93
2017-05-17T12:36:39.124Z,39.22
2017-05-17T12:37:48.090Z,38.64
2017-05-17T12:38:57.361Z,38.54
2017-05-17T12:40:06.332Z,38.45
2017-05-17T12:41:15.305Z,38.45
2017-05-17T12:42:24.277Z,38.73
2017-05-17T12:43:33.250Z,38.93
2017-05-17T12:44:42.606Z,39.03
2017-05-17T12:45:51.578Z,39.22
2017-05-17T12:47:00.544Z,39.12
2017-05-17T12:48:09.512Z,39.12
2017-05-17T12:49:18.480Z,39.61
2017-05-17T12:50:27.754Z,40
2017-05-17T12:51:36.723Z,39.61
2017-05-17T12:52:45.695Z,39.51
2017-05-17T12:53:54.671Z,39.8
2017-05-17T12:55:03.696Z,39.61
2017-05-17T12:56:12.958Z,39.51
2017-05-17T12:57:21.922Z,38.93
2017-05-17T12:58:30.899Z,38.83
2017-05-17T12:59:39.868Z,38.37
2017-05-17T13:00:48.834Z,38.27
2017-05-17T13:01:58.098Z,38.17
2017-05-17T13:03:07.064Z,38.37
2017-05-17T13:04:16.035Z,38.95
2017-05-17T13:05:25.013Z,39.14
2017-05-17T13:06:33.982Z,38.66
2017-05-17T13:07:43.200Z,38.27
2017-05-17T13:08:52.168Z,38.27
2017-05-17T13:10:01.466Z,37.88
2017-05-17T13:11:10.430Z,38.07
2017-05-17T13:12:19.486Z,37.98
2017-05-17T13:13:28.757Z,38.27
2017-05-17T13:14:37.725Z,38.27
2017-05-17T13:15:46.695Z,38.07
2017-05-17T13:16:55.659Z,37.98
2017-05-17T13:18:04.630Z,38.37
2017-05-17T13:19:13.902Z,38.27
2017-05-17T13:20:22.880Z,37.98
2017-05-17T13:21:31.936Z,38.27
2017-05-17T13:22:40.991Z,38.17
2017-05-17T13:23:49.969Z,38.76
2017-05-17T13:24:59.195Z,38.85
2017-05-17T13:26:08.163Z,38.46
2017-05-17T13:27:17.218Z,39.04
2017-05-17T13:28:26.275Z,38.85
2017-05-17T13:29:35.241Z,39.14
2017-05-17T13:30:44.462Z,38.95
2017-05-17T13:31:53.435Z,38.85
2017-05-17T13:33:02.413Z,39.04
2017-05-17T13:34:11.389Z,38.56
2017-05-17T13:35:20.371Z,39.24
2017-05-17T13:36:29.637Z,39.72
2017-05-17T13:37:38.610Z,39.24
2017-05-17T13:38:47.579Z,39.14
2017-05-17T13:39:56.878Z,38.85
2017-05-17T13:41:05.847Z,38.46
2017-05-17T13:42:15.111Z,37.88
2017-05-17T13:43:24.078Z,37.79
2017-05-17T13:44:33.046Z,38.27
2017-05-17T13:45:42.014Z,38.17
2017-05-17T13:46:50.986Z,38.27
2017-05-17T13:48:00.205Z,38.56
2017-05-17T13:49:09.171Z,38.66
2017-05-17T13:50:18.135Z,38.85
2017-05-17T13:51:27.104Z,39.14
2017-05-17T13:52:36.078Z,38.95
2017-05-17T13:53:45.343Z,38.56
2017-05-17T13:54:54.308Z,38.85
2017-05-17T13:56:03.370Z,38.85
2017-05-17T13:57:12.382Z,39.14
2017-05-17T13:58:21.354Z,38.56
2017-05-17T13:59:30.715Z,38.37
2017-05-17T14:00:39.681Z,38.17
2017-05-17T14:01:48.658Z,37.79
2017-05-17T14:02:57.618Z,37.98
2017-05-17T14:04:06.582Z,37.98
2017-05-17T14:05:15.851Z,38.07
2017-05-17T14:06:24.872Z,38.37
2017-05-17T14:07:33.849Z,38.27
2017-05-17T14:08:42.827Z,38.39
2017-05-17T14:09:51.798Z,38.37
2017-05-17T14:11:01.065Z,38.27
2017-05-17T14:12:10.138Z,38.17
2017-05-17T14:13:19.108Z,37.49
2017-05-17T14:14:28.169Z,38.07
2017-05-17T14:15:37.138Z,38.17
2017-05-17T14:16:46.357Z,38.27
2017-05-17T14:17:55.322Z,38.56
2017-05-17T14:19:04.286Z,38.27
2017-05-17T14:20:13.260Z,38.27
2017-05-17T14:21:22.229Z,38.29
2017-05-17T14:22:31.823Z,37.98
2017-05-17T14:23:40.785Z,38.17
2017-05-17T14:24:49.755Z,38.29
2017-05-17T14:25:58.723Z,38.48
2017-05-17T14:27:07.776Z,38.76
2017-05-17T14:28:17.045Z,38.66
2017-05-17T14:29:26.030Z,38.39
2017-05-17T14:30:34.997Z,38.07
2017-05-17T14:31:44.060Z,38.17
2017-05-17T14:32:53.029Z,37.79
2017-05-17T14:34:02.295Z,37.98
2017-05-17T14:35:11.263Z,38.07
2017-05-17T14:36:20.229Z,38.29
2017-05-17T14:37:29.192Z,38.39
2017-05-17T14:38:38.161Z,38.58
2017-05-17T14:39:47.442Z,38.46
2017-05-17T14:40:56.405Z,38.48
2017-05-17T14:42:05.373Z,38.56
2017-05-17T14:43:14.338Z,38.85
2017-05-17T14:44:23.318Z,38.95
2017-05-17T14:45:32.588Z,38.95
2017-05-17T14:46:41.562Z,38.76
2017-05-17T14:47:50.532Z,38.27
2017-05-17T14:48:59.503Z,38.17
2017-05-17T14:50:08.563Z,37.9
2017-05-17T14:51:17.827Z,37.88
2017-05-17T14:52:26.803Z,38.19
2017-05-17T14:53:35.869Z,38.48